createdAt,value
2017-11-21T00:09:08.594Z,84.8
2017-11-21T00:19:54.795Z,85.1
2017-11-21T00:30:08.832Z,83.7
2017-11-21T00:41:05.758Z,83.8
2017-11-21T00:51:19.308Z,83.8
2017-11-21T01:01:44.373Z,83.6
2017-11-21T01:11:58.163Z,83.4
2017-11-21T01:22:14.674Z,83.4
2017-11-21T01:32:31.937Z,83.3
2017-11-21T01:42:46.655Z,83.1
2017-11-21T01:52:58.148Z,84.2
2017-11-21T02:03:11.338Z,84.1
2017-11-21T02:13:25.573Z,84.2
2017-11-21T02:23:38.750Z,84.3
2017-11-21T02:33:56.811Z,84.4
2017-11-21T02:44:42.810Z,84.5
2017-11-21T02:54:55.030Z,84.3
2017-11-21T03:05:07.287Z,84.7
2017-11-21T03:16:03.855Z,84.5
2017-11-21T03:26:16.132Z,83.6
2017-11-21T03:36:33.671Z,83.8
2017-11-21T03:46:53.388Z,83.7
2017-11-21T03:57:11.730Z,83.6
2017-11-21T04:07:37.931Z,83.8
2017-11-21T04:19:26.954Z,83.8
2017-11-21T04:29:53.886Z,83.4
2017-11-21T04:40:08.849Z,84.0
2017-11-21T04:50:54.358Z,83.8
2017-11-21T05:01:39.235Z,83.7
2017-11-21T05:11:52.806Z,83.5
2017-11-21T05:22:37.362Z,83.5
2017-11-21T05:32:51.583Z,83.5
2017-11-21T05:43:05.195Z,83.6
2017-11-21T05:53:17.426Z,83.6
2017-11-21T06:04:04.198Z,83.7
2017-11-21T06:14:18.480Z,83.4
2017-11-21T06:24:32.669Z,83.7
2017-11-21T06:34:44.814Z,83.6
2017-11-21T06:44:58.392Z,83.6
2017-11-21T06:55:31.462Z,83.6
2017-11-21T07:05:58.424Z,83.6
2017-11-21T07:16:58.788Z,83.8
2017-11-21T07:27:40.182Z,83.8
2017-11-21T07:38:26.019Z,83.7
2017-11-21T07:49:11.277Z,83.6
2017-11-21T08:00:13.590Z,83.8
2017-11-21T08:11:36.356Z,84.1
2017-11-21T08:21:51.361Z,84.1
2017-11-21T08:32:36.205Z,84.1
2017-11-21T08:43:21.281Z,84.6
2017-11-21T08:53:35.782Z,84.2
2017-11-21T09:03:47.791Z,84.2
2017-11-21T09:14:33.659Z,84.1
2017-11-21T09:24:44.950Z,84.4
2017-11-21T09:35:30.424Z,84.4
2017-11-21T09:46:16.543Z,84.9
2017-11-21T09:56:28.091Z,84.4
2017-11-21T10:06:39.976Z,84.0
2017-11-21T10:16:52.195Z,84.0
2017-11-21T10:27:06.302Z,83.7
2017-11-21T10:37:17.546Z,83.8
2017-11-21T10:47:32.089Z,83.7
2017-11-21T10:58:17.573Z,83.7
2017-11-21T11:09:03.067Z,83.6
2017-11-21T11:19:59.282Z,83.5
2017-11-21T11:30:16.347Z,83.5
2017-11-21T11:41:01.878Z,83.4
2017-11-21T11:51:13.465Z,83.4
2017-11-21T12:01:27.718Z,83.7
2017-11-21T12:11:41.986Z,84.3
2017-11-21T12:21:55.872Z,84.2
2017-11-21T12:32:08.104Z,84.3
2017-11-21T12:42:22.551Z,84.5
2017-11-21T12:52:36.455Z,84.8
2017-11-21T13:02:50.659Z,84.5
2017-11-21T13:13:05.128Z,84.6
2017-11-21T13:23:17.402Z,84.7
2017-11-21T13:34:03.033Z,84.9
2017-11-21T13:44:17.003Z,85.0
2017-11-21T13:54:28.699Z,85.1
2017-11-21T14:04:42.713Z,84.9
2017-11-21T14:14:54.670Z,85.2
2017-11-21T14:25:08.549Z,85.2
2017-11-21T14:35:20.668Z,85.0
2017-11-21T14:46:06.268Z,85.1
2017-11-21T14:56:51.592Z,84.7
2017-11-21T15:07:03.497Z,85.2
2017-11-21T15:17:15.452Z,84.9
2017-11-21T15:27:29.717Z,85.3
2017-11-21T15:37:41.021Z,85.1
2017-11-21T15:48:46.513Z,85.1
2017-11-21T15:59:00.885Z,85.2
2017-11-21T16:09:14.973Z,85.2
2017-11-21T16:19:29.424Z,85.2
2017-11-21T16:29:43.416Z,85.9
2017-11-21T16:39:58.142Z,85.7
2017-11-21T16:50:12.301Z,85.1
2017-11-21T17:00:24.250Z,85.1
2017-11-21T17:11:10.181Z,85.0
2017-11-21T17:21:24.196Z,84.9
2017-11-21T17:31:35.433Z,85.1
2017-11-21T17:41:50.131Z,84.8
2017-11-21T17:52:04.332Z,84.7
2017-11-21T18:02:18.917Z,84.4
2017-11-21T18:13:04.547Z,84.6
2017-11-21T18:23:36.097Z,84.7
2017-11-21T18:33:53.843Z,84.6
2017-11-21T18:44:08.176Z,84.6
2017-11-21T18:54:20.200Z,84.3
2017-11-21T19:04:36.421Z,84.3
2017-11-21T19:15:01.282Z,84.3
2017-11-21T19:25:52.984Z,83.9
2017-11-21T19:36:07.474Z,83.8
2017-11-21T19:47:58.118Z,83.8
2017-11-21T19:58:56.018Z,83.6
2017-11-21T20:09:23.393Z,83.6
2017-11-21T20:19:52.812Z,83.3
2017-11-21T20:30:08.714Z,83.2
2017-11-21T20:40:26.029Z,83.1
2017-11-21T20:50:41.688Z,83.1
2017-11-21T21:01:35.895Z,83.1
2017-11-21T21:12:44.748Z,82.9
2017-11-21T21:22:59.651Z,83.0
2017-11-21T21:33:15.448Z,83.1
2017-11-21T21:43:34.941Z,83.9
2017-11-21T21:54:22.801Z,84.3
2017-11-21T22:04:37.248Z,84.2
2017-11-21T22:15:22.541Z,84.3
2017-11-21T22:25:37.069Z,83.8
2017-11-21T22:36:25.256Z,83.9
2017-11-21T22:46:42.401Z,84.2
2017-11-21T22:56:54.320Z,84.0
2017-11-21T23:07:39.650Z,84.1
2017-11-21T23:17:51.268Z,84.1
2017-11-21T23:28:06.008Z,84.2
2017-11-21T23:38:30.111Z,84.2
2017-11-21T23:48:50.250Z,84.2
2017-11-21T23:59:35.526Z,84.2
